NCAR-RAP Real-Time Weather Data

Output produced by METARs form (12 May 2021  12:06 UTC)
found at http://weather.rap.ucar.edu/surface/
 
KRNO 121155Z 00000KT 10SM CLR 09/M04 A3013 RMK AO2 SLP166 T00891039 10161 20089 53003
KRNO 121055Z 00000KT 10SM CLR 10/M06 A3012 RMK AO2 SLP163 T01001056
KRNO 120955Z 25003KT 10SM CLR 11/M07 A3012 RMK AO2 SLP164 T01061067
KRNO 120855Z 28006KT 10SM CLR 12/M07 A3012 RMK AO2 SLP160 T01171072 50003
KRNO 120755Z 29005KT 10SM CLR 13/M07 A3012 RMK AO2 SLP162 T01281072 402390056
KRNO 120655Z 00000KT 10SM CLR 14/M07 A3012 RMK AO2 SLP161 T01391072
KRNO 120555Z 26003KT 10SM CLR 16/M08 A3011 RMK AO2 SLP156 T01611078 10239 20156 51021
KRNO 120455Z VRB03KT 10SM FEW250 18/M08 A3010 RMK AO2 SLP152 T01781083
KRNO 120355Z 36006KT 10SM FEW210 SCT250 19/M11 A3007 RMK AO2 SLP142 T01891106
KRNO 120255Z 09008KT 10SM FEW210 SCT250 21/M10 A3004 RMK AO2 SLP134 T02111100 53002
KRNO 120155Z 10007KT 10SM FEW180 BKN250 23/M09 A3003 RMK AO2 SLP134 T02281094
KRNO 120055Z 10004KT 10SM FEW085 BKN250 24/M08 A3003 RMK AO2 SLP135 T02391083
KRNO 112355Z 06008KT 10SM FEW085 BKN250 23/M09 A3004 RMK AO2 SLP135 T02331089 10239 20183 56013